sensor_id;sensor_type;location;lat;lon;timestamp;P1;durP1;ratioP1;P2;durP2;ratioP2
79697;SDS011;69168;42.708;23.286;2024-03-22T00:00:16;19.23;;;10.68;;
79697;SDS011;69168;42.708;23.286;2024-03-22T00:02:42;18.67;;;10.23;;
79697;SDS011;69168;42.708;23.286;2024-03-22T00:05:07;20.20;;;9.95;;
79697;SDS011;69168;42.708;23.286;2024-03-22T00:07:33;19.13;;;9.80;;
79697;SDS011;69168;42.708;23.286;2024-03-22T00:09:59;18.73;;;9.85;;
79697;SDS011;69168;42.708;23.286;2024-03-22T00:12:25;17.60;;;9.60;;
79697;SDS011;69168;42.708;23.286;2024-03-22T00:14:50;22.27;;;10.10;;
79697;SDS011;69168;42.708;23.286;2024-03-22T00:17:19;19.00;;;9.15;;
79697;SDS011;69168;42.708;23.286;2024-03-22T00:19:45;17.45;;;9.93;;
79697;SDS011;69168;42.708;23.286;2024-03-22T00:22:11;18.98;;;10.07;;
79697;SDS011;69168;42.708;23.286;2024-03-22T00:24:36;20.13;;;9.63;;
79697;SDS011;69168;42.708;23.286;2024-03-22T00:27:02;17.90;;;9.32;;
79697;SDS011;69168;42.708;23.286;2024-03-22T00:29:27;18.95;;;9.98;;
79697;SDS011;69168;42.708;23.286;2024-03-22T00:31:53;21.15;;;10.30;;
79697;SDS011;69168;42.708;23.286;2024-03-22T00:34:18;19.30;;;9.38;;
79697;SDS011;69168;42.708;23.286;2024-03-22T00:36:44;20.50;;;9.90;;
79697;SDS011;69168;42.708;23.286;2024-03-22T00:39:10;21.55;;;11.10;;
79697;SDS011;69168;42.708;23.286;2024-03-22T00:41:37;21.95;;;9.70;;
79697;SDS011;69168;42.708;23.286;2024-03-22T00:44:03;24.05;;;9.73;;
79697;SDS011;69168;42.708;23.286;2024-03-22T00:46:28;25.45;;;10.43;;
79697;SDS011;69168;42.708;23.286;2024-03-22T00:48:54;18.45;;;8.80;;
79697;SDS011;69168;42.708;23.286;2024-03-22T00:51:19;26.83;;;8.70;;
79697;SDS011;69168;42.708;23.286;2024-03-22T00:53:45;21.67;;;7.85;;
79697;SDS011;69168;42.708;23.286;2024-03-22T00:56:10;25.95;;;8.45;;
79697;SDS011;69168;42.708;23.286;2024-03-22T00:58:36;19.27;;;8.77;;
79697;SDS011;69168;42.708;23.286;2024-03-22T01:01:01;21.35;;;7.78;;
79697;SDS011;69168;42.708;23.286;2024-03-22T01:03:27;19.00;;;7.72;;
79697;SDS011;69168;42.708;23.286;2024-03-22T01:05:52;13.95;;;7.13;;
79697;SDS011;69168;42.708;23.286;2024-03-22T01:08:18;19.30;;;6.47;;
79697;SDS011;69168;42.708;23.286;2024-03-22T01:10:44;13.35;;;7.85;;
79697;SDS011;69168;42.708;23.286;2024-03-22T01:13:10;17.20;;;6.65;;
79697;SDS011;69168;42.708;23.286;2024-03-22T01:15:35;16.38;;;7.07;;
79697;SDS011;69168;42.708;23.286;2024-03-22T01:18:01;17.00;;;6.60;;
79697;SDS011;69168;42.708;23.286;2024-03-22T01:20:26;14.93;;;6.47;;
79697;SDS011;69168;42.708;23.286;2024-03-22T01:22:52;17.33;;;6.97;;
79697;SDS011;69168;42.708;23.286;2024-03-22T01:25:17;15.95;;;6.60;;
79697;SDS011;69168;42.708;23.286;2024-03-22T01:27:43;13.77;;;7.32;;
79697;SDS011;69168;42.708;23.286;2024-03-22T01:30:09;15.43;;;6.50;;
79697;SDS011;69168;42.708;23.286;2024-03-22T01:32:35;16.60;;;7.53;;
79697;SDS011;69168;42.708;23.286;2024-03-22T01:35:01;15.38;;;6.65;;
79697;SDS011;69168;42.708;23.286;2024-03-22T01:37:27;20.42;;;7.55;;
79697;SDS011;69168;42.708;23.286;2024-03-22T01:39:52;15.73;;;7.13;;
79697;SDS011;69168;42.708;23.286;2024-03-22T01:42:18;14.52;;;7.43;;
79697;SDS011;69168;42.708;23.286;2024-03-22T01:44:43;16.45;;;7.38;;
79697;SDS011;69168;42.708;23.286;2024-03-22T01:47:09;17.77;;;7.82;;
79697;SDS011;69168;42.708;23.286;2024-03-22T01:49:35;17.25;;;7.30;;
79697;SDS011;69168;42.708;23.286;2024-03-22T01:52:01;18.30;;;7.88;;
79697;SDS011;69168;42.708;23.286;2024-03-22T01:54:26;17.08;;;6.85;;
79697;SDS011;69168;42.708;23.286;2024-03-22T01:56:52;12.38;;;7.30;;
79697;SDS011;69168;42.708;23.286;2024-03-22T01:59:17;15.77;;;7.80;;
79697;SDS011;69168;42.708;23.286;2024-03-22T02:01:43;15.23;;;7.88;;
79697;SDS011;69168;42.708;23.286;2024-03-22T02:04:09;18.85;;;9.45;;
79697;SDS011;69168;42.708;23.286;2024-03-22T02:06:35;17.33;;;8.98;;
79697;SDS011;69168;42.708;23.286;2024-03-22T02:09:00;19.40;;;7.63;;
79697;SDS011;69168;42.708;23.286;2024-03-22T02:11:26;17.75;;;7.60;;
79697;SDS011;69168;42.708;23.286;2024-03-22T02:13:52;20.25;;;8.98;;
79697;SDS011;69168;42.708;23.286;2024-03-22T02:16:18;16.85;;;8.80;;
79697;SDS011;69168;42.708;23.286;2024-03-22T02:18:43;20.45;;;8.73;;
79697;SDS011;69168;42.708;23.286;2024-03-22T02:21:12;14.82;;;7.70;;
79697;SDS011;69168;42.708;23.286;2024-03-22T02:23:39;16.67;;;7.68;;
79697;SDS011;69168;42.708;23.286;2024-03-22T02:26:05;15.60;;;7.13;;
79697;SDS011;69168;42.708;23.286;2024-03-22T02:28:32;15.48;;;7.95;;
79697;SDS011;69168;42.708;23.286;2024-03-22T02:30:58;15.07;;;7.72;;
79697;SDS011;69168;42.708;23.286;2024-03-22T02:33:24;14.40;;;7.40;;
79697;SDS011;69168;42.708;23.286;2024-03-22T02:35:50;14.18;;;7.10;;
79697;SDS011;69168;42.708;23.286;2024-03-22T02:38:17;16.75;;;7.60;;
79697;SDS011;69168;42.708;23.286;2024-03-22T02:40:43;15.07;;;7.15;;
79697;SDS011;69168;42.708;23.286;2024-03-22T02:43:09;14.18;;;7.15;;
79697;SDS011;69168;42.708;23.286;2024-03-22T02:45:35;18.85;;;8.15;;
79697;SDS011;69168;42.708;23.286;2024-03-22T02:48:00;15.30;;;7.70;;
79697;SDS011;69168;42.708;23.286;2024-03-22T02:50:26;15.02;;;8.20;;
79697;SDS011;69168;42.708;23.286;2024-03-22T02:52:51;15.07;;;7.18;;
79697;SDS011;69168;42.708;23.286;2024-03-22T02:55:17;15.40;;;8.25;;
79697;SDS011;69168;42.708;23.286;2024-03-22T02:57:42;17.20;;;7.95;;
79697;SDS011;69168;42.708;23.286;2024-03-22T03:00:08;19.25;;;7.80;;
79697;SDS011;69168;42.708;23.286;2024-03-22T03:02:34;13.73;;;7.78;;
79697;SDS011;69168;42.708;23.286;2024-03-22T03:05:00;17.75;;;8.52;;
79697;SDS011;69168;42.708;23.286;2024-03-22T03:07:26;17.55;;;7.85;;
79697;SDS011;69168;42.708;23.286;2024-03-22T03:09:55;14.88;;;8.18;;
79697;SDS011;69168;42.708;23.286;2024-03-22T03:12:20;16.60;;;8.25;;
79697;SDS011;69168;42.708;23.286;2024-03-22T03:14:46;18.05;;;8.38;;
79697;SDS011;69168;42.708;23.286;2024-03-22T03:17:11;15.40;;;7.85;;
79697;SDS011;69168;42.708;23.286;2024-03-22T03:19:37;15.63;;;8.93;;
79697;SDS011;69168;42.708;23.286;2024-03-22T03:22:03;29.30;;;10.40;;
79697;SDS011;69168;42.708;23.286;2024-03-22T03:24:28;15.82;;;8.07;;
79697;SDS011;69168;42.708;23.286;2024-03-22T03:26:54;17.13;;;7.65;;
79697;SDS011;69168;42.708;23.286;2024-03-22T03:29:19;22.65;;;8.70;;
79697;SDS011;69168;42.708;23.286;2024-03-22T03:31:45;18.75;;;9.38;;
79697;SDS011;69168;42.708;23.286;2024-03-22T03:34:11;18.13;;;7.70;;
79697;SDS011;69168;42.708;23.286;2024-03-22T03:36:36;14.77;;;7.85;;
79697;SDS011;69168;42.708;23.286;2024-03-22T03:39:02;17.17;;;9.13;;
79697;SDS011;69168;42.708;23.286;2024-03-22T03:41:29;20.27;;;9.35;;
79697;SDS011;69168;42.708;23.286;2024-03-22T03:43:54;19.55;;;9.02;;
79697;SDS011;69168;42.708;23.286;2024-03-22T03:46:20;17.05;;;9.43;;
79697;SDS011;69168;42.708;23.286;2024-03-22T03:48:45;22.50;;;10.48;;
79697;SDS011;69168;42.708;23.286;2024-03-22T03:51:11;19.38;;;9.45;;
79697;SDS011;69168;42.708;23.286;2024-03-22T03:53:36;21.13;;;9.73;;
79697;SDS011;69168;42.708;23.286;2024-03-22T03:56:02;20.70;;;9.07;;
79697;SDS011;69168;42.708;23.286;2024-03-22T03:58:28;17.92;;;9.63;;
79697;SDS011;69168;42.708;23.286;2024-03-22T04:00:53;21.00;;;10.20;;
79697;SDS011;69168;42.708;23.286;2024-03-22T04:03:19;20.40;;;10.23;;
79697;SDS011;69168;42.708;23.286;2024-03-22T04:05:44;27.02;;;10.30;;
79697;SDS011;69168;42.708;23.286;2024-03-22T04:08:10;21.45;;;9.88;;
79697;SDS011;69168;42.708;23.286;2024-03-22T04:10:35;20.50;;;10.18;;
79697;SDS011;69168;42.708;23.286;2024-03-22T04:13:01;17.60;;;10.10;;
79697;SDS011;69168;42.708;23.286;2024-03-22T04:15:27;20.70;;;10.73;;
79697;SDS011;69168;42.708;23.286;2024-03-22T04:17:52;22.85;;;9.52;;
79697;SDS011;69168;42.708;23.286;2024-03-22T04:20:18;27.67;;;9.90;;
79697;SDS011;69168;42.708;23.286;2024-03-22T04:22:43;22.80;;;10.30;;
79697;SDS011;69168;42.708;23.286;2024-03-22T04:25:09;21.08;;;9.45;;
79697;SDS011;69168;42.708;23.286;2024-03-22T04:27:37;20.05;;;9.95;;
79697;SDS011;69168;42.708;23.286;2024-03-22T04:30:03;20.63;;;9.50;;
79697;SDS011;69168;42.708;23.286;2024-03-22T04:32:29;21.83;;;10.85;;
79697;SDS011;69168;42.708;23.286;2024-03-22T04:34:54;25.02;;;10.90;;
79697;SDS011;69168;42.708;23.286;2024-03-22T04:37:20;25.63;;;9.75;;
79697;SDS011;69168;42.708;23.286;2024-03-22T04:39:46;25.33;;;10.13;;
79697;SDS011;69168;42.708;23.286;2024-03-22T04:42:11;28.13;;;11.52;;
79697;SDS011;69168;42.708;23.286;2024-03-22T04:44:37;23.23;;;9.55;;
79697;SDS011;69168;42.708;23.286;2024-03-22T04:47:02;25.10;;;11.20;;
79697;SDS011;69168;42.708;23.286;2024-03-22T04:49:28;23.48;;;12.65;;
79697;SDS011;69168;42.708;23.286;2024-03-22T04:51:55;21.20;;;10.93;;
79697;SDS011;69168;42.708;23.286;2024-03-22T04:54:20;19.65;;;11.05;;
79697;SDS011;69168;42.708;23.286;2024-03-22T04:56:46;23.40;;;11.93;;
79697;SDS011;69168;42.708;23.286;2024-03-22T04:59:11;22.15;;;11.70;;
79697;SDS011;69168;42.708;23.286;2024-03-22T05:01:37;21.45;;;11.65;;
79697;SDS011;69168;42.708;23.286;2024-03-22T05:04:02;19.17;;;10.10;;
79697;SDS011;69168;42.708;23.286;2024-03-22T05:06:28;19.10;;;10.40;;
79697;SDS011;69168;42.708;23.286;2024-03-22T05:08:54;19.85;;;10.32;;
79697;SDS011;69168;42.708;23.286;2024-03-22T05:11:19;17.42;;;10.30;;
79697;SDS011;69168;42.708;23.286;2024-03-22T05:13:45;29.40;;;11.70;;
79697;SDS011;69168;42.708;23.286;2024-03-22T05:16:11;20.95;;;10.25;;
79697;SDS011;69168;42.708;23.286;2024-03-22T05:18:37;22.67;;;11.13;;
79697;SDS011;69168;42.708;23.286;2024-03-22T05:21:03;21.73;;;10.55;;
79697;SDS011;69168;42.708;23.286;2024-03-22T05:23:29;21.50;;;11.48;;
79697;SDS011;69168;42.708;23.286;2024-03-22T05:25:54;31.13;;;12.80;;
79697;SDS011;69168;42.708;23.286;2024-03-22T05:28:20;27.80;;;12.77;;
79697;SDS011;69168;42.708;23.286;2024-03-22T05:30:46;30.73;;;11.27;;
79697;SDS011;69168;42.708;23.286;2024-03-22T05:33:12;27.80;;;12.30;;
79697;SDS011;69168;42.708;23.286;2024-03-22T05:35:37;31.08;;;12.90;;
79697;SDS011;69168;42.708;23.286;2024-03-22T05:38:03;33.60;;;13.00;;
79697;SDS011;69168;42.708;23.286;2024-03-22T05:40:29;24.10;;;10.90;;
79697;SDS011;69168;42.708;23.286;2024-03-22T05:42:54;23.40;;;12.07;;
79697;SDS011;69168;42.708;23.286;2024-03-22T05:45:20;22.35;;;10.73;;
79697;SDS011;69168;42.708;23.286;2024-03-22T05:47:45;21.73;;;11.15;;
79697;SDS011;69168;42.708;23.286;2024-03-22T05:50:11;20.83;;;10.73;;
79697;SDS011;69168;42.708;23.286;2024-03-22T05:52:37;23.05;;;11.43;;
79697;SDS011;69168;42.708;23.286;2024-03-22T05:55:02;22.85;;;12.18;;
79697;SDS011;69168;42.708;23.286;2024-03-22T05:57:29;25.63;;;11.82;;
79697;SDS011;69168;42.708;23.286;2024-03-22T05:59:55;21.67;;;11.38;;
79697;SDS011;69168;42.708;23.286;2024-03-22T06:02:20;27.55;;;11.77;;
79697;SDS011;69168;42.708;23.286;2024-03-22T06:04:46;31.92;;;12.13;;
79697;SDS011;69168;42.708;23.286;2024-03-22T06:07:12;25.35;;;11.52;;
79697;SDS011;69168;42.708;23.286;2024-03-22T06:12:11;21.83;;;11.02;;
79697;SDS011;69168;42.708;23.286;2024-03-22T06:14:40;27.75;;;12.18;;
79697;SDS011;69168;42.708;23.286;2024-03-22T06:17:06;43.33;;;14.77;;
79697;SDS011;69168;42.708;23.286;2024-03-22T06:19:32;26.40;;;13.07;;
79697;SDS011;69168;42.708;23.286;2024-03-22T06:22:00;23.63;;;12.32;;
79697;SDS011;69168;42.708;23.286;2024-03-22T06:24:26;23.30;;;12.05;;
79697;SDS011;69168;42.708;23.286;2024-03-22T06:26:52;23.65;;;11.20;;
79697;SDS011;69168;42.708;23.286;2024-03-22T06:29:17;35.80;;;13.15;;
79697;SDS011;69168;42.708;23.286;2024-03-22T06:31:43;27.23;;;12.55;;
79697;SDS011;69168;42.708;23.286;2024-03-22T06:34:08;31.23;;;15.73;;
79697;SDS011;69168;42.708;23.286;2024-03-22T06:36:34;22.95;;;11.18;;
79697;SDS011;69168;42.708;23.286;2024-03-22T06:38:59;27.17;;;13.43;;
79697;SDS011;69168;42.708;23.286;2024-03-22T06:41:25;25.70;;;13.35;;
79697;SDS011;69168;42.708;23.286;2024-03-22T06:46:17;35.80;;;13.73;;
79697;SDS011;69168;42.708;23.286;2024-03-22T06:48:43;27.38;;;12.25;;
79697;SDS011;69168;42.708;23.286;2024-03-22T06:51:08;30.40;;;13.88;;
79697;SDS011;69168;42.708;23.286;2024-03-22T06:53:34;34.22;;;14.93;;
79697;SDS011;69168;42.708;23.286;2024-03-22T06:55:59;28.88;;;13.65;;
79697;SDS011;69168;42.708;23.286;2024-03-22T06:58:25;26.83;;;13.30;;
79697;SDS011;69168;42.708;23.286;2024-03-22T07:00:51;28.30;;;12.27;;
79697;SDS011;69168;42.708;23.286;2024-03-22T07:03:16;27.27;;;13.02;;
79697;SDS011;69168;42.708;23.286;2024-03-22T07:05:42;27.25;;;13.00;;
79697;SDS011;69168;42.708;23.286;2024-03-22T07:08:08;31.17;;;13.10;;
79697;SDS011;69168;42.708;23.286;2024-03-22T07:10:34;30.30;;;12.57;;
79697;SDS011;69168;42.708;23.286;2024-03-22T07:13:00;31.60;;;11.63;;
79697;SDS011;69168;42.708;23.286;2024-03-22T07:15:26;30.58;;;12.88;;
79697;SDS011;69168;42.708;23.286;2024-03-22T07:17:51;26.00;;;12.80;;
79697;SDS011;69168;42.708;23.286;2024-03-22T07:20:17;30.45;;;12.00;;
79697;SDS011;69168;42.708;23.286;2024-03-22T07:22:43;25.67;;;11.93;;
79697;SDS011;69168;42.708;23.286;2024-03-22T07:25:09;20.13;;;10.27;;
79697;SDS011;69168;42.708;23.286;2024-03-22T07:27:35;23.75;;;10.88;;
79697;SDS011;69168;42.708;23.286;2024-03-22T07:30:01;20.88;;;10.02;;
79697;SDS011;69168;42.708;23.286;2024-03-22T07:32:27;23.98;;;11.02;;
79697;SDS011;69168;42.708;23.286;2024-03-22T07:34:54;22.55;;;9.57;;
79697;SDS011;69168;42.708;23.286;2024-03-22T07:37:19;23.40;;;11.18;;
79697;SDS011;69168;42.708;23.286;2024-03-22T07:39:45;17.38;;;9.48;;
79697;SDS011;69168;42.708;23.286;2024-03-22T07:42:11;19.50;;;10.20;;
79697;SDS011;69168;42.708;23.286;2024-03-22T07:44:36;16.52;;;8.57;;
79697;SDS011;69168;42.708;23.286;2024-03-22T07:47:02;18.77;;;7.70;;
79697;SDS011;69168;42.708;23.286;2024-03-22T07:49:27;12.38;;;6.30;;
79697;SDS011;69168;42.708;23.286;2024-03-22T07:51:53;11.30;;;4.80;;
79697;SDS011;69168;42.708;23.286;2024-03-22T07:54:18;8.60;;;4.28;;
79697;SDS011;69168;42.708;23.286;2024-03-22T07:56:45;8.32;;;4.22;;
79697;SDS011;69168;42.708;23.286;2024-03-22T07:59:11;11.13;;;5.07;;
79697;SDS011;69168;42.708;23.286;2024-03-22T08:01:36;7.82;;;4.43;;
79697;SDS011;69168;42.708;23.286;2024-03-22T08:04:02;9.75;;;4.75;;
79697;SDS011;69168;42.708;23.286;2024-03-22T08:06:28;10.15;;;4.45;;
79697;SDS011;69168;42.708;23.286;2024-03-22T08:08:53;11.77;;;4.93;;
79697;SDS011;69168;42.708;23.286;2024-03-22T08:11:19;8.63;;;4.63;;
79697;SDS011;69168;42.708;23.286;2024-03-22T08:13:44;12.90;;;4.70;;
79697;SDS011;69168;42.708;23.286;2024-03-22T08:16:11;8.85;;;4.35;;
79697;SDS011;69168;42.708;23.286;2024-03-22T08:18:37;11.00;;;4.40;;
79697;SDS011;69168;42.708;23.286;2024-03-22T08:21:02;5.60;;;3.60;;
79697;SDS011;69168;42.708;23.286;2024-03-22T08:23:28;7.53;;;3.20;;
79697;SDS011;69168;42.708;23.286;2024-03-22T08:25:54;5.70;;;3.08;;
79697;SDS011;69168;42.708;23.286;2024-03-22T08:28:19;6.03;;;3.00;;
79697;SDS011;69168;42.708;23.286;2024-03-22T08:30:45;5.88;;;3.50;;
79697;SDS011;69168;42.708;23.286;2024-03-22T08:33:10;7.03;;;3.75;;
79697;SDS011;69168;42.708;23.286;2024-03-22T08:35:36;7.78;;;3.67;;
79697;SDS011;69168;42.708;23.286;2024-03-22T08:38:02;6.25;;;3.50;;
79697;SDS011;69168;42.708;23.286;2024-03-22T08:40:29;8.45;;;3.78;;
79697;SDS011;69168;42.708;23.286;2024-03-22T08:42:54;9.23;;;3.05;;
79697;SDS011;69168;42.708;23.286;2024-03-22T08:45:20;4.82;;;3.03;;
79697;SDS011;69168;42.708;23.286;2024-03-22T08:47:46;10.18;;;4.00;;
79697;SDS011;69168;42.708;23.286;2024-03-22T08:50:11;7.63;;;4.03;;
79697;SDS011;69168;42.708;23.286;2024-03-22T08:52:37;5.35;;;4.15;;
79697;SDS011;69168;42.708;23.286;2024-03-22T08:55:03;4.70;;;2.80;;
79697;SDS011;69168;42.708;23.286;2024-03-22T08:57:31;4.82;;;3.28;;
79697;SDS011;69168;42.708;23.286;2024-03-22T08:59:56;8.35;;;3.50;;
79697;SDS011;69168;42.708;23.286;2024-03-22T09:02:22;8.07;;;3.10;;
79697;SDS011;69168;42.708;23.286;2024-03-22T09:04:48;4.32;;;3.00;;
79697;SDS011;69168;42.708;23.286;2024-03-22T09:07:13;4.80;;;2.88;;
79697;SDS011;69168;42.708;23.286;2024-03-22T09:09:39;9.73;;;3.60;;
79697;SDS011;69168;42.708;23.286;2024-03-22T09:12:04;8.30;;;3.33;;
79697;SDS011;69168;42.708;23.286;2024-03-22T09:14:33;7.22;;;4.35;;
79697;SDS011;69168;42.708;23.286;2024-03-22T09:16:59;7.10;;;4.00;;
79697;SDS011;69168;42.708;23.286;2024-03-22T09:19:24;5.40;;;3.05;;
79697;SDS011;69168;42.708;23.286;2024-03-22T09:21:50;7.80;;;3.60;;
79697;SDS011;69168;42.708;23.286;2024-03-22T09:24:15;5.28;;;3.53;;
79697;SDS011;69168;42.708;23.286;2024-03-22T09:26:40;5.35;;;2.92;;
79697;SDS011;69168;42.708;23.286;2024-03-22T09:29:06;3.38;;;2.40;;
79697;SDS011;69168;42.708;23.286;2024-03-22T09:31:32;7.00;;;3.58;;
79697;SDS011;69168;42.708;23.286;2024-03-22T09:33:58;5.90;;;3.47;;
79697;SDS011;69168;42.708;23.286;2024-03-22T09:36:24;8.32;;;4.43;;
79697;SDS011;69168;42.708;23.286;2024-03-22T09:38:49;5.68;;;3.28;;
79697;SDS011;69168;42.708;23.286;2024-03-22T09:41:15;4.95;;;2.97;;
79697;SDS011;69168;42.708;23.286;2024-03-22T09:43:49;6.03;;;3.75;;
79697;SDS011;69168;42.708;23.286;2024-03-22T09:46:19;7.25;;;4.15;;
79697;SDS011;69168;42.708;23.286;2024-03-22T09:48:47;5.47;;;3.50;;
79697;SDS011;69168;42.708;23.286;2024-03-22T09:51:15;7.57;;;4.07;;
79697;SDS011;69168;42.708;23.286;2024-03-22T09:53:43;6.63;;;3.80;;
79697;SDS011;69168;42.708;23.286;2024-03-22T09:56:10;6.53;;;3.53;;
79697;SDS011;69168;42.708;23.286;2024-03-22T09:58:40;7.18;;;3.35;;
79697;SDS011;69168;42.708;23.286;2024-03-22T10:01:06;4.60;;;3.28;;
79697;SDS011;69168;42.708;23.286;2024-03-22T10:03:31;5.50;;;3.30;;
79697;SDS011;69168;42.708;23.286;2024-03-22T10:05:57;5.40;;;2.97;;
79697;SDS011;69168;42.708;23.286;2024-03-22T10:08:23;5.25;;;3.40;;
79697;SDS011;69168;42.708;23.286;2024-03-22T10:10:48;5.55;;;3.45;;
79697;SDS011;69168;42.708;23.286;2024-03-22T10:13:14;4.43;;;2.80;;
79697;SDS011;69168;42.708;23.286;2024-03-22T10:15:39;4.57;;;2.70;;
79697;SDS011;69168;42.708;23.286;2024-03-22T10:18:05;4.55;;;2.60;;
79697;SDS011;69168;42.708;23.286;2024-03-22T10:20:30;3.95;;;2.83;;
79697;SDS011;69168;42.708;23.286;2024-03-22T10:22:56;6.03;;;3.20;;
79697;SDS011;69168;42.708;23.286;2024-03-22T10:25:25;4.53;;;3.15;;
79697;SDS011;69168;42.708;23.286;2024-03-22T10:27:55;3.45;;;2.35;;
79697;SDS011;69168;42.708;23.286;2024-03-22T10:30:21;5.57;;;2.85;;
79697;SDS011;69168;42.708;23.286;2024-03-22T10:32:51;5.32;;;2.85;;
79697;SDS011;69168;42.708;23.286;2024-03-22T10:35:17;8.38;;;4.25;;
79697;SDS011;69168;42.708;23.286;2024-03-22T10:37:43;7.75;;;4.57;;
79697;SDS011;69168;42.708;23.286;2024-03-22T10:40:09;5.15;;;3.60;;
79697;SDS011;69168;42.708;23.286;2024-03-22T10:42:35;9.10;;;4.97;;
79697;SDS011;69168;42.708;23.286;2024-03-22T10:45:04;9.77;;;6.30;;
79697;SDS011;69168;42.708;23.286;2024-03-22T10:47:32;9.55;;;4.85;;
79697;SDS011;69168;42.708;23.286;2024-03-22T10:50:05;11.43;;;6.55;;
79697;SDS011;69168;42.708;23.286;2024-03-22T10:52:38;6.60;;;2.80;;
79697;SDS011;69168;42.708;23.286;2024-03-22T10:55:13;4.80;;;2.65;;
79697;SDS011;69168;42.708;23.286;2024-03-22T10:57:45;4.22;;;2.53;;
79697;SDS011;69168;42.708;23.286;2024-03-22T11:00:11;4.45;;;2.90;;
79697;SDS011;69168;42.708;23.286;2024-03-22T11:02:37;5.43;;;3.03;;
79697;SDS011;69168;42.708;23.286;2024-03-22T11:05:04;7.30;;;3.42;;
79697;SDS011;69168;42.708;23.286;2024-03-22T11:09:56;4.68;;;2.90;;
79697;SDS011;69168;42.708;23.286;2024-03-22T11:12:25;4.90;;;2.50;;
79697;SDS011;69168;42.708;23.286;2024-03-22T11:14:52;4.85;;;2.88;;
79697;SDS011;69168;42.708;23.286;2024-03-22T11:17:18;3.72;;;2.25;;
79697;SDS011;69168;42.708;23.286;2024-03-22T11:19:44;4.60;;;3.10;;
79697;SDS011;69168;42.708;23.286;2024-03-22T11:22:09;7.72;;;3.50;;
79697;SDS011;69168;42.708;23.286;2024-03-22T11:24:39;7.35;;;3.85;;
79697;SDS011;69168;42.708;23.286;2024-03-22T11:27:05;23.35;;;4.30;;
79697;SDS011;69168;42.708;23.286;2024-03-22T11:29:31;7.03;;;3.70;;
79697;SDS011;69168;42.708;23.286;2024-03-22T11:31:56;6.75;;;3.90;;
79697;SDS011;69168;42.708;23.286;2024-03-22T11:34:22;3.80;;;2.45;;
79697;SDS011;69168;42.708;23.286;2024-03-22T11:36:47;4.05;;;2.97;;
79697;SDS011;69168;42.708;23.286;2024-03-22T11:39:14;4.18;;;2.70;;
79697;SDS011;69168;42.708;23.286;2024-03-22T11:41:40;6.10;;;3.08;;
79697;SDS011;69168;42.708;23.286;2024-03-22T11:44:06;4.50;;;2.63;;
79697;SDS011;69168;42.708;23.286;2024-03-22T11:46:32;3.85;;;2.50;;
79697;SDS011;69168;42.708;23.286;2024-03-22T11:48:58;9.35;;;3.30;;
79697;SDS011;69168;42.708;23.286;2024-03-22T11:51:24;10.50;;;4.88;;
79697;SDS011;69168;42.708;23.286;2024-03-22T11:53:50;5.75;;;3.45;;
79697;SDS011;69168;42.708;23.286;2024-03-22T11:56:20;4.80;;;3.55;;
79697;SDS011;69168;42.708;23.286;2024-03-22T11:58:46;5.45;;;2.78;;
79697;SDS011;69168;42.708;23.286;2024-03-22T12:01:13;5.47;;;3.58;;
79697;SDS011;69168;42.708;23.286;2024-03-22T12:03:46;6.30;;;3.08;;
79697;SDS011;69168;42.708;23.286;2024-03-22T12:06:12;4.82;;;2.88;;
79697;SDS011;69168;42.708;23.286;2024-03-22T12:08:38;6.00;;;2.67;;
79697;SDS011;69168;42.708;23.286;2024-03-22T12:11:06;4.70;;;2.35;;
79697;SDS011;69168;42.708;23.286;2024-03-22T12:13:33;3.40;;;2.42;;
79697;SDS011;69168;42.708;23.286;2024-03-22T12:15:59;4.28;;;2.83;;
79697;SDS011;69168;42.708;23.286;2024-03-22T12:18:25;5.25;;;2.63;;
79697;SDS011;69168;42.708;23.286;2024-03-22T12:20:50;3.17;;;2.60;;
79697;SDS011;69168;42.708;23.286;2024-03-22T12:23:16;4.78;;;2.30;;
79697;SDS011;69168;42.708;23.286;2024-03-22T12:25:41;4.82;;;2.75;;
79697;SDS011;69168;42.708;23.286;2024-03-22T12:28:07;5.88;;;2.50;;
79697;SDS011;69168;42.708;23.286;2024-03-22T12:30:32;3.40;;;2.10;;
79697;SDS011;69168;42.708;23.286;2024-03-22T12:32:58;4.88;;;2.10;;
79697;SDS011;69168;42.708;23.286;2024-03-22T12:35:24;3.88;;;2.22;;
79697;SDS011;69168;42.708;23.286;2024-03-22T12:37:53;5.90;;;3.65;;
79697;SDS011;69168;42.708;23.286;2024-03-22T12:40:19;3.17;;;2.35;;
79697;SDS011;69168;42.708;23.286;2024-03-22T12:42:45;5.97;;;3.28;;
79697;SDS011;69168;42.708;23.286;2024-03-22T12:45:11;5.32;;;2.90;;
79697;SDS011;69168;42.708;23.286;2024-03-22T12:47:37;4.43;;;2.33;;
79697;SDS011;69168;42.708;23.286;2024-03-22T12:50:03;4.03;;;2.53;;
79697;SDS011;69168;42.708;23.286;2024-03-22T12:52:29;7.35;;;3.28;;
79697;SDS011;69168;42.708;23.286;2024-03-22T12:54:55;3.95;;;2.30;;
79697;SDS011;69168;42.708;23.286;2024-03-22T12:57:20;4.35;;;2.33;;
79697;SDS011;69168;42.708;23.286;2024-03-22T12:59:46;5.03;;;2.75;;
79697;SDS011;69168;42.708;23.286;2024-03-22T13:02:11;3.40;;;2.60;;
79697;SDS011;69168;42.708;23.286;2024-03-22T13:04:37;4.72;;;2.58;;
79697;SDS011;69168;42.708;23.286;2024-03-22T13:07:03;3.97;;;2.40;;
79697;SDS011;69168;42.708;23.286;2024-03-22T13:09:28;5.28;;;2.50;;
79697;SDS011;69168;42.708;23.286;2024-03-22T13:11:54;4.28;;;2.60;;
79697;SDS011;69168;42.708;23.286;2024-03-22T13:14:22;3.65;;;2.40;;
79697;SDS011;69168;42.708;23.286;2024-03-22T13:16:48;4.88;;;2.83;;
79697;SDS011;69168;42.708;23.286;2024-03-22T13:19:14;4.35;;;2.53;;
79697;SDS011;69168;42.708;23.286;2024-03-22T13:21:40;3.40;;;2.20;;
79697;SDS011;69168;42.708;23.286;2024-03-22T13:24:05;3.42;;;2.28;;
79697;SDS011;69168;42.708;23.286;2024-03-22T13:26:34;4.35;;;2.30;;
79697;SDS011;69168;42.708;23.286;2024-03-22T13:28:59;4.53;;;2.65;;
79697;SDS011;69168;42.708;23.286;2024-03-22T13:31:25;5.88;;;2.88;;
79697;SDS011;69168;42.708;23.286;2024-03-22T13:33:50;5.43;;;2.65;;
79697;SDS011;69168;42.708;23.286;2024-03-22T13:36:16;3.70;;;2.72;;
79697;SDS011;69168;42.708;23.286;2024-03-22T13:38:43;4.00;;;2.53;;
79697;SDS011;69168;42.708;23.286;2024-03-22T13:41:08;4.15;;;2.72;;
79697;SDS011;69168;42.708;23.286;2024-03-22T13:43:34;4.07;;;2.53;;
79697;SDS011;69168;42.708;23.286;2024-03-22T13:46:02;3.08;;;2.60;;
79697;SDS011;69168;42.708;23.286;2024-03-22T13:48:28;3.50;;;2.40;;
79697;SDS011;69168;42.708;23.286;2024-03-22T13:50:54;5.63;;;2.90;;
79697;SDS011;69168;42.708;23.286;2024-03-22T13:53:20;8.23;;;2.80;;
79697;SDS011;69168;42.708;23.286;2024-03-22T13:55:49;6.05;;;2.83;;
79697;SDS011;69168;42.708;23.286;2024-03-22T13:58:15;3.17;;;2.38;;
79697;SDS011;69168;42.708;23.286;2024-03-22T14:00:41;4.38;;;2.47;;
79697;SDS011;69168;42.708;23.286;2024-03-22T14:03:07;4.22;;;2.53;;
79697;SDS011;69168;42.708;23.286;2024-03-22T14:05:32;6.15;;;2.45;;
79697;SDS011;69168;42.708;23.286;2024-03-22T14:07:58;3.75;;;2.67;;
79697;SDS011;69168;42.708;23.286;2024-03-22T14:10:24;3.97;;;2.97;;
79697;SDS011;69168;42.708;23.286;2024-03-22T14:12:52;3.78;;;2.58;;
79697;SDS011;69168;42.708;23.286;2024-03-22T14:15:18;4.85;;;2.90;;
79697;SDS011;69168;42.708;23.286;2024-03-22T14:17:44;4.60;;;2.78;;
79697;SDS011;69168;42.708;23.286;2024-03-22T14:20:10;4.38;;;2.80;;
79697;SDS011;69168;42.708;23.286;2024-03-22T14:22:39;4.20;;;2.70;;